CMA CGM La Boussole — A8FZ6 — position and weather

sailwx.info

Track history (hours):
 
Tides and Currents Weather Stations Pressure Air Temp Water Temp Dewpoint Dewpoint Depression Visibility Wind Speed Wind Dir Waves Ship Positions

CMA CGM La Boussole

Last reported at 2017-Nov-12 20:12 UTC. Time now 2017-Nov-20 07:49 UTC.
Position N 11°11' W 074°57'.

Length 210.1 m; beam 30.2 m; draft 11.5 m.

Type: Ship (hazmat cat A). MMSI: 636017045.

Date/timePositionNaut miles runAvg speedWind from/ knotsBaromVisibWave heightAir tempDewpointWater temp
2017-Nov-12 20:12N 11°11' W 074°57'420.0
2017-Nov-12 20:00N 11°13' W 074°53'1020.0
2017-Nov-12 19:30N 11°17' W 074°44'1120.1
2017-Nov-12 18:58N 11°21' W 074°34'79920.1
2017-Nov-11 03:07N 14°33' W 061°18'219.9
2017-Nov-11 03:00N 14°34' W 061°16'1017.4
2017-Nov-11 02:27N 14°35' W 061°06'2 5.6
2017-Nov-11 02:00N 14°35' W 061°03'0 0.1
2017-Nov-11 01:30N 14°36' W 061°03'0 0.0
2017-Nov-11 01:00N 14°36' W 061°03'0 0.0
2017-Nov-11 00:30N 14°36' W 061°03'0 0.0
2017-Nov-11 00:00N 14°36' W 061°03'0 0.0
2017-Nov-10 23:30N 14°36' W 061°03'0 0.0
2017-Nov-10 23:00N 14°36' W 061°03'0 0.0
2017-Nov-10 22:30N 14°36' W 061°03'0 0.0
2017-Nov-10 22:00N 14°36' W 061°03'0 0.0
2017-Nov-10 21:30N 14°36' W 061°03'0 0.0
2017-Nov-10 21:00N 14°36' W 061°03'0 0.0
2017-Nov-10 20:30N 14°36' W 061°03'0 0.0
2017-Nov-10 20:00N 14°36' W 061°03'0 0.0
2017-Nov-10 19:30N 14°36' W 061°03'0 0.0
2017-Nov-10 19:00N 14°36' W 061°03'0 0.0
2017-Nov-10 18:13N 14°36' W 061°03'0 0.0
2017-Nov-10 18:00N 14°36' W 061°03'0 0.0
2017-Nov-10 17:30N 14°36' W 061°03'0 0.0
2017-Nov-10 17:00N 14°36' W 061°03'0 0.0
2017-Nov-10 16:30N 14°35' W 061°03'0 0.0
2017-Nov-10 16:00N 14°36' W 061°03'0 0.0
2017-Nov-10 15:30N 14°36' W 061°03'0 0.0
2017-Nov-10 15:00N 14°36' W 061°03'0 0.0
2017-Nov-10 14:30N 14°36' W 061°03'0 0.0
2017-Nov-10 14:00N 14°36' W 061°03'0 0.0
2017-Nov-10 13:30N 14°36' W 061°03'0 0.0
2017-Nov-10 13:00N 14°36' W 061°03'0 0.0
2017-Nov-10 12:30N 14°36' W 061°03'0 0.0
2017-Nov-10 12:00N 14°36' W 061°03'0 0.0
2017-Nov-10 11:30N 14°36' W 061°03'0 0.0
2017-Nov-10 11:00N 14°36' W 061°03'0 0.0
2017-Nov-10 10:30N 14°36' W 061°03'0 0.1
2017-Nov-10 10:00N 14°36' W 061°03'3 5.3
2017-Nov-10 09:30N 14°35' W 061°06'2 4.0
2017-Nov-10 09:00N 14°36' W 061°08'3 5.9
2017-Nov-10 08:30N 14°38' W 061°10'6 9.8
2017-Nov-10 07:53N 14°43' W 061°14'80 6.7
2017-Nov-09 19:51N 16°01' W 061°31'411.5
2017-Nov-09 19:28N 16°05' W 061°31'4 8.9
2017-Nov-09 19:00N 16°09' W 061°31'4 8.0
2017-Nov-09 18:30N 16°13' W 061°32'1 1.5
2017-Nov-09 17:58N 16°14' W 061°33'0 0.0
2017-Nov-09 17:22N 16°14' W 061°33'0 0.0
2017-Nov-09 16:58N 16°14' W 061°33'0 0.0
2017-Nov-09 16:28N 16°14' W 061°33'0 0.0
2017-Nov-09 15:04N 16°14' W 061°33'0 0.0
2017-Nov-09 13:52N 16°14' W 061°33'0 0.0
2017-Nov-09 13:19N 16°14' W 061°33'0 0.0
2017-Nov-09 12:58N 16°14' W 061°33'0 0.0
2017-Nov-09 12:28N 16°14' W 061°33'0 0.0
2017-Nov-09 11:22N 16°14' W 061°33'0 0.0
2017-Nov-09 10:55N 16°14' W 061°33'0 0.0
2017-Nov-09 10:25N 16°14' W 061°33'0 0.0
2017-Nov-09 09:58N 16°14' W 061°33'0 0.0
2017-Nov-09 09:28N 16°14' W 061°33'0 0.0
2017-Nov-09 08:58N 16°14' W 061°33'0 0.0
2017-Nov-09 08:28N 16°14' W 061°33'0 0.0
2017-Nov-09 07:58N 16°14' W 061°33'0 0.0
2017-Nov-09 07:28N 16°14' W 061°33'0 0.0
2017-Nov-09 06:58N 16°14' W 061°33'0 0.0
2017-Nov-09 06:28N 16°14' W 061°33'0 0.0
2017-Nov-09 05:55N 16°14' W 061°33'0 0.0
2017-Nov-09 05:28N 16°14' W 061°33'0 0.0
2017-Nov-09 04:58N 16°14' W 061°33'0 0.0
2017-Nov-09 04:28N 16°14' W 061°33'0 0.0
2017-Nov-09 03:58N 16°14' W 061°33'0 0.0
2017-Nov-09 03:28N 16°14' W 061°33'0 0.0
2017-Nov-09 02:58N 16°14' W 061°33'0 0.0
2017-Nov-09 02:31N 16°14' W 061°33'0 0.0
2017-Nov-09 02:01N 16°14' W 061°33'0 0.0
2017-Nov-09 01:31N 16°14' W 061°33'0 0.0
2017-Nov-09 01:01N 16°14' W 061°33'0 0.0
2017-Nov-09 00:31N 16°14' W 061°33'0 0.0
2017-Nov-09 00:01N 16°14' W 061°33'0 0.0
2017-Nov-08 23:31N 16°14' W 061°33'0 0.0
2017-Nov-08 23:01N 16°14' W 061°33'0 0.0
2017-Nov-08 22:28N 16°14' W 061°33'0 0.0
2017-Nov-08 22:00N 16°14' W 061°33'0 0.0
2017-Nov-08 21:27N 16°14' W 061°33'0 0.0
2017-Nov-08 21:00N 16°14' W 061°33'0 0.0
2017-Nov-08 20:24N 16°14' W 061°33'0 0.0
2017-Nov-08 19:45N 16°14' W 061°33'0 0.0
2017-Nov-08 19:30N 16°14' W 061°33'0 0.0
2017-Nov-08 18:30N 16°14' W 061°33'0 0.0
2017-Nov-08 18:00N 16°14' W 061°33'1 1.4
2017-Nov-08 17:30N 16°13' W 061°32'2 3.5
2017-Nov-08 17:00N 16°12' W 061°32'2 4.0
2017-Nov-08 16:31N 16°10' W 061°32'4 8.4
2017-Nov-08 16:00N 16°08' W 061°28'4 8.1
2017-Nov-08 15:30N 16°07' W 061°24'611.3
2017-Nov-08 15:01N 16°07' W 061°18'917.0
2017-Nov-08 14:28N 16°07' W 061°09'1117.5
2017-Nov-08 13:51N 16°11' W 060°59'  
Track history (hours):
 
Tides and Currents Weather Stations Pressure Air Temp Water Temp Dewpoint Dewpoint Depression Visibility Wind Speed Wind Dir Waves Ship Positions

CMA CGM La Boussole

Last reported at 2017-Nov-12 20:12 UTC. Time now 2017-Nov-20 07:49 UTC.
Position N 11°11' W 074°57'.

Length 210.1 m; beam 30.2 m; draft 11.5 m.

Type: Ship (hazmat cat A). MMSI: 636017045.

Date/timePositionNaut miles runAvg speedWind from/ knotsBaromVisibWave heightAir tempDewpointWater temp
2017-Nov-12 20:12N 11°11' W 074°57'420.0
2017-Nov-12 20:00N 11°13' W 074°53'1020.0
2017-Nov-12 19:30N 11°17' W 074°44'1120.1
2017-Nov-12 18:58N 11°21' W 074°34'79920.1
2017-Nov-11 03:07N 14°33' W 061°18'219.9
2017-Nov-11 03:00N 14°34' W 061°16'1017.4
2017-Nov-11 02:27N 14°35' W 061°06'2 5.6
2017-Nov-11 02:00N 14°35' W 061°03'0 0.1
2017-Nov-11 01:30N 14°36' W 061°03'0 0.0
2017-Nov-11 01:00N 14°36' W 061°03'0 0.0
2017-Nov-11 00:30N 14°36' W 061°03'0 0.0
2017-Nov-11 00:00N 14°36' W 061°03'0 0.0
2017-Nov-10 23:30N 14°36' W 061°03'0 0.0
2017-Nov-10 23:00N 14°36' W 061°03'0 0.0
2017-Nov-10 22:30N 14°36' W 061°03'0 0.0
2017-Nov-10 22:00N 14°36' W 061°03'0 0.0
2017-Nov-10 21:30N 14°36' W 061°03'0 0.0
2017-Nov-10 21:00N 14°36' W 061°03'0 0.0
2017-Nov-10 20:30N 14°36' W 061°03'0 0.0
2017-Nov-10 20:00N 14°36' W 061°03'0 0.0
2017-Nov-10 19:30N 14°36' W 061°03'0 0.0
2017-Nov-10 19:00N 14°36' W 061°03'0 0.0
2017-Nov-10 18:13N 14°36' W 061°03'0 0.0
2017-Nov-10 18:00N 14°36' W 061°03'0 0.0
2017-Nov-10 17:30N 14°36' W 061°03'0 0.0
2017-Nov-10 17:00N 14°36' W 061°03'0 0.0
2017-Nov-10 16:30N 14°35' W 061°03'0 0.0
2017-Nov-10 16:00N 14°36' W 061°03'0 0.0
2017-Nov-10 15:30N 14°36' W 061°03'0 0.0
2017-Nov-10 15:00N 14°36' W 061°03'0 0.0
2017-Nov-10 14:30N 14°36' W 061°03'0 0.0
2017-Nov-10 14:00N 14°36' W 061°03'0 0.0
2017-Nov-10 13:30N 14°36' W 061°03'0 0.0
2017-Nov-10 13:00N 14°36' W 061°03'0 0.0
2017-Nov-10 12:30N 14°36' W 061°03'0 0.0
2017-Nov-10 12:00N 14°36' W 061°03'0 0.0
2017-Nov-10 11:30N 14°36' W 061°03'0 0.0
2017-Nov-10 11:00N 14°36' W 061°03'0 0.0
2017-Nov-10 10:30N 14°36' W 061°03'0 0.1
2017-Nov-10 10:00N 14°36' W 061°03'3 5.3
2017-Nov-10 09:30N 14°35' W 061°06'2 4.0
2017-Nov-10 09:00N 14°36' W 061°08'3 5.9
2017-Nov-10 08:30N 14°38' W 061°10'6 9.8
2017-Nov-10 07:53N 14°43' W 061°14'80 6.7
2017-Nov-09 19:51N 16°01' W 061°31'411.5
2017-Nov-09 19:28N 16°05' W 061°31'4 8.9
2017-Nov-09 19:00N 16°09' W 061°31'4 8.0
2017-Nov-09 18:30N 16°13' W 061°32'1 1.5
2017-Nov-09 17:58N 16°14' W 061°33'0 0.0
2017-Nov-09 17:22N 16°14' W 061°33'0 0.0
2017-Nov-09 16:58N 16°14' W 061°33'0 0.0
2017-Nov-09 16:28N 16°14' W 061°33'0 0.0
2017-Nov-09 15:04N 16°14' W 061°33'0 0.0
2017-Nov-09 13:52N 16°14' W 061°33'0 0.0
2017-Nov-09 13:19N 16°14' W 061°33'0 0.0
2017-Nov-09 12:58N 16°14' W 061°33'0 0.0
2017-Nov-09 12:28N 16°14' W 061°33'0 0.0
2017-Nov-09 11:22N 16°14' W 061°33'0 0.0
2017-Nov-09 10:55N 16°14' W 061°33'0 0.0
2017-Nov-09 10:25N 16°14' W 061°33'0 0.0
2017-Nov-09 09:58N 16°14' W 061°33'0 0.0
2017-Nov-09 09:28N 16°14' W 061°33'0 0.0
2017-Nov-09 08:58N 16°14' W 061°33'0 0.0
2017-Nov-09 08:28N 16°14' W 061°33'0 0.0
2017-Nov-09 07:58N 16°14' W 061°33'0 0.0
2017-Nov-09 07:28N 16°14' W 061°33'0 0.0
2017-Nov-09 06:58N 16°14' W 061°33'0 0.0
2017-Nov-09 06:28N 16°14' W 061°33'0 0.0
2017-Nov-09 05:55N 16°14' W 061°33'0 0.0
2017-Nov-09 05:28N 16°14' W 061°33'0 0.0
2017-Nov-09 04:58N 16°14' W 061°33'0 0.0
2017-Nov-09 04:28N 16°14' W 061°33'0 0.0
2017-Nov-09 03:58N 16°14' W 061°33'0 0.0
2017-Nov-09 03:28N 16°14' W 061°33'0 0.0
2017-Nov-09 02:58N 16°14' W 061°33'0 0.0
2017-Nov-09 02:31N 16°14' W 061°33'0 0.0
2017-Nov-09 02:01N 16°14' W 061°33'0 0.0
2017-Nov-09 01:31N 16°14' W 061°33'0 0.0
2017-Nov-09 01:01N 16°14' W 061°33'0 0.0
2017-Nov-09 00:31N 16°14' W 061°33'0 0.0
2017-Nov-09 00:01N 16°14' W 061°33'0 0.0
2017-Nov-08 23:31N 16°14' W 061°33'0 0.0
2017-Nov-08 23:01N 16°14' W 061°33'0 0.0
2017-Nov-08 22:28N 16°14' W 061°33'0 0.0
2017-Nov-08 22:00N 16°14' W 061°33'0 0.0
2017-Nov-08 21:27N 16°14' W 061°33'0 0.0
2017-Nov-08 21:00N 16°14' W 061°33'0 0.0
2017-Nov-08 20:24N 16°14' W 061°33'0 0.0
2017-Nov-08 19:45N 16°14' W 061°33'0 0.0
2017-Nov-08 19:30N 16°14' W 061°33'0 0.0
2017-Nov-08 18:30N 16°14' W 061°33'0 0.0
2017-Nov-08 18:00N 16°14' W 061°33'1 1.4
2017-Nov-08 17:30N 16°13' W 061°32'2 3.5
2017-Nov-08 17:00N 16°12' W 061°32'2 4.0
2017-Nov-08 16:31N 16°10' W 061°32'4 8.4
2017-Nov-08 16:00N 16°08' W 061°28'4 8.1
2017-Nov-08 15:30N 16°07' W 061°24'611.3
2017-Nov-08 15:01N 16°07' W 061°18'917.0
2017-Nov-08 14:28N 16°07' W 061°09'1117.5
2017-Nov-08 13:51N 16°11' W 060°59'  

Dump ship's entire track history